sensor_id;sensor_type;location;lat;lon;timestamp;pressure;altitude;pressure_sealevel;temperature;humidity
21547;BME280;41275;51.912;4.388;2023-03-20T00:04:09;101924.28;;;14.41;49.91
21547;BME280;41275;51.912;4.388;2023-03-20T00:09:30;101933.56;;;14.38;49.79
21547;BME280;41275;51.912;4.388;2023-03-20T00:14:52;101941.75;;;14.37;49.76
21547;BME280;41275;51.912;4.388;2023-03-20T00:20:15;101958.78;;;14.36;49.89
21547;BME280;41275;51.912;4.388;2023-03-20T00:25:37;101976.59;;;14.35;49.32
21547;BME280;41275;51.912;4.388;2023-03-20T00:30:59;101966.97;;;14.34;49.44
21547;BME280;41275;51.912;4.388;2023-03-20T00:36:21;101944.66;;;14.35;49.61
21547;BME280;41275;51.912;4.388;2023-03-20T00:41:50;101944.78;;;14.40;49.77
21547;BME280;41275;51.912;4.388;2023-03-20T00:47:18;101951.59;;;14.36;49.66
21547;BME280;41275;51.912;4.388;2023-03-20T00:52:40;101922.53;;;14.35;49.79
21547;BME280;41275;51.912;4.388;2023-03-20T00:58:01;101906.09;;;14.38;49.44
21547;BME280;41275;51.912;4.388;2023-03-20T01:03:25;101908.09;;;14.42;49.39
21547;BME280;41275;51.912;4.388;2023-03-20T01:08:46;101909.19;;;14.53;48.82
21547;BME280;41275;51.912;4.388;2023-03-20T01:14:14;101927.41;;;14.56;49.13
21547;BME280;41275;51.912;4.388;2023-03-20T01:19:36;101946.75;;;14.45;48.59
21547;BME280;41275;51.912;4.388;2023-03-20T01:24:57;101966.09;;;14.40;48.79
21547;BME280;41275;51.912;4.388;2023-03-20T01:30:21;101970.59;;;14.40;48.83
21547;BME280;41275;51.912;4.388;2023-03-20T01:35:44;101977.78;;;14.39;48.53
21547;BME280;41275;51.912;4.388;2023-03-20T01:41:11;101954.25;;;14.36;48.42
21547;BME280;41275;51.912;4.388;2023-03-20T01:46:33;101959.94;;;14.40;48.71
21547;BME280;41275;51.912;4.388;2023-03-20T01:51:56;101956.47;;;14.39;48.09
21547;BME280;41275;51.912;4.388;2023-03-20T01:57:21;101951.88;;;14.46;48.46
21547;BME280;41275;51.912;4.388;2023-03-20T02:02:46;101938.72;;;14.52;47.87
21547;BME280;41275;51.912;4.388;2023-03-20T02:08:17;101927.03;;;14.53;48.30
21547;BME280;41275;51.912;4.388;2023-03-20T02:13:41;101921.03;;;14.39;47.89
21547;BME280;41275;51.912;4.388;2023-03-20T02:19:04;101913.00;;;14.27;48.25
21547;BME280;41275;51.912;4.388;2023-03-20T02:24:50;101898.81;;;14.15;48.43
21547;BME280;41275;51.912;4.388;2023-03-20T02:47:40;101905.97;;;14.33;48.43
21547;BME280;41275;51.912;4.388;2023-03-20T02:58:31;101889.84;;;14.28;48.73
21547;BME280;41275;51.912;4.388;2023-03-20T03:04:03;101889.03;;;14.27;48.24
21547;BME280;41275;51.912;4.388;2023-03-20T03:09:32;101886.16;;;14.29;48.71
21547;BME280;41275;51.912;4.388;2023-03-20T03:14:59;101880.44;;;14.25;48.27
21547;BME280;41275;51.912;4.388;2023-03-20T03:20:33;101873.94;;;14.21;48.77
21547;BME280;41275;51.912;4.388;2023-03-20T03:25:56;101863.75;;;14.18;48.83
21547;BME280;41275;51.912;4.388;2023-03-20T03:31:20;101857.16;;;14.20;49.01
21547;BME280;41275;51.912;4.388;2023-03-20T03:37:05;101851.25;;;14.18;48.96
21547;BME280;41275;51.912;4.388;2023-03-20T03:42:35;101850.00;;;14.21;48.88
21547;BME280;41275;51.912;4.388;2023-03-20T03:48:06;101863.31;;;14.21;48.99
21547;BME280;41275;51.912;4.388;2023-03-20T03:53:35;101853.91;;;14.18;48.85
21547;BME280;41275;51.912;4.388;2023-03-20T03:59:02;101849.06;;;14.15;48.94
21547;BME280;41275;51.912;4.388;2023-03-20T04:04:26;101830.88;;;14.12;49.22
21547;BME280;41275;51.912;4.388;2023-03-20T04:09:49;101830.56;;;14.20;49.47
21547;BME280;41275;51.912;4.388;2023-03-20T04:15:12;101835.88;;;14.20;49.05
21547;BME280;41275;51.912;4.388;2023-03-20T04:20:34;101837.50;;;14.21;49.25
21547;BME280;41275;51.912;4.388;2023-03-20T04:25:55;101844.66;;;14.21;48.98
21547;BME280;41275;51.912;4.388;2023-03-20T04:31:16;101848.59;;;14.18;49.02
21547;BME280;41275;51.912;4.388;2023-03-20T04:36:38;101842.44;;;14.18;49.25
21547;BME280;41275;51.912;4.388;2023-03-20T04:41:59;101836.56;;;14.16;49.50
21547;BME280;41275;51.912;4.388;2023-03-20T04:47:20;101827.16;;;14.13;49.26
21547;BME280;41275;51.912;4.388;2023-03-20T04:52:41;101823.44;;;14.14;49.50
21547;BME280;41275;51.912;4.388;2023-03-20T04:58:02;101806.66;;;14.14;49.65
21547;BME280;41275;51.912;4.388;2023-03-20T05:03:24;101802.63;;;14.11;49.77
21547;BME280;41275;51.912;4.388;2023-03-20T05:08:45;101797.75;;;14.08;49.64
21547;BME280;41275;51.912;4.388;2023-03-20T05:14:06;101793.00;;;14.10;49.80
21547;BME280;41275;51.912;4.388;2023-03-20T05:19:27;101793.34;;;14.14;49.68
21547;BME280;41275;51.912;4.388;2023-03-20T05:24:51;101803.66;;;14.10;49.74
21547;BME280;41275;51.912;4.388;2023-03-20T05:30:13;101804.00;;;14.14;50.21
21547;BME280;41275;51.912;4.388;2023-03-20T05:35:35;101804.38;;;14.17;49.85
21547;BME280;41275;51.912;4.388;2023-03-20T05:40:57;101806.81;;;14.19;49.86
21547;BME280;41275;51.912;4.388;2023-03-20T05:46:19;101811.84;;;14.27;49.72
21547;BME280;41275;51.912;4.388;2023-03-20T05:51:40;101813.88;;;14.25;50.03
21547;BME280;41275;51.912;4.388;2023-03-20T05:57:01;101806.25;;;14.29;49.90
21547;BME280;41275;51.912;4.388;2023-03-20T06:02:22;101818.66;;;14.23;49.30
21547;BME280;41275;51.912;4.388;2023-03-20T06:07:44;101830.31;;;14.22;49.74
21547;BME280;41275;51.912;4.388;2023-03-20T06:13:05;101841.78;;;14.22;49.65
21547;BME280;41275;51.912;4.388;2023-03-20T06:18:26;101834.16;;;14.26;49.65
21547;BME280;41275;51.912;4.388;2023-03-20T06:23:47;101837.91;;;14.37;49.20
21547;BME280;41275;51.912;4.388;2023-03-20T06:29:08;101856.81;;;14.47;48.86
21547;BME280;41275;51.912;4.388;2023-03-20T06:34:29;101853.56;;;14.45;48.74
21547;BME280;41275;51.912;4.388;2023-03-20T06:39:51;101859.75;;;14.57;48.69
21547;BME280;41275;51.912;4.388;2023-03-20T06:45:12;101850.25;;;14.61;48.63
21547;BME280;41275;51.912;4.388;2023-03-20T06:50:34;101865.81;;;14.64;48.25
21547;BME280;41275;51.912;4.388;2023-03-20T06:55:55;101857.91;;;14.58;48.41
21547;BME280;41275;51.912;4.388;2023-03-20T07:01:16;101866.13;;;14.56;48.44
21547;BME280;41275;51.912;4.388;2023-03-20T07:06:39;101869.41;;;14.58;48.27
21547;BME280;41275;51.912;4.388;2023-03-20T07:12:01;101864.91;;;14.70;48.10
21547;BME280;41275;51.912;4.388;2023-03-20T07:17:22;101866.44;;;14.78;48.32
21547;BME280;41275;51.912;4.388;2023-03-20T07:22:44;101860.06;;;14.79;47.87
21547;BME280;41275;51.912;4.388;2023-03-20T07:28:05;101874.44;;;14.90;48.08
21547;BME280;41275;51.912;4.388;2023-03-20T07:33:26;101876.75;;;14.86;48.22
21547;BME280;41275;51.912;4.388;2023-03-20T07:38:47;101880.56;;;14.79;48.35
21547;BME280;41275;51.912;4.388;2023-03-20T07:44:09;101885.75;;;14.73;48.25
21547;BME280;41275;51.912;4.388;2023-03-20T07:49:30;101880.63;;;14.60;48.84
21547;BME280;41275;51.912;4.388;2023-03-20T07:54:52;101890.69;;;14.58;49.11
21547;BME280;41275;51.912;4.388;2023-03-20T08:00:14;101885.06;;;14.48;49.60
21547;BME280;41275;51.912;4.388;2023-03-20T08:05:36;101886.19;;;14.40;49.82
21547;BME280;41275;51.912;4.388;2023-03-20T08:10:58;101878.59;;;14.25;50.19
21547;BME280;41275;51.912;4.388;2023-03-20T08:16:19;101882.84;;;14.15;50.27
21547;BME280;41275;51.912;4.388;2023-03-20T08:21:40;101886.22;;;14.22;50.80
21547;BME280;41275;51.912;4.388;2023-03-20T08:27:01;101891.34;;;14.23;50.58
21547;BME280;41275;51.912;4.388;2023-03-20T08:32:23;101880.44;;;14.25;50.63
21547;BME280;41275;51.912;4.388;2023-03-20T08:37:44;101871.34;;;14.33;51.02
21547;BME280;41275;51.912;4.388;2023-03-20T08:43:06;101874.81;;;14.52;50.90
21547;BME280;41275;51.912;4.388;2023-03-20T08:48:27;101868.41;;;14.83;50.73
21547;BME280;41275;51.912;4.388;2023-03-20T08:53:48;101883.63;;;15.06;51.01
21547;BME280;41275;51.912;4.388;2023-03-20T08:59:10;101867.84;;;15.28;50.94
21547;BME280;41275;51.912;4.388;2023-03-20T09:04:31;101874.81;;;15.40;51.06
21547;BME280;41275;51.912;4.388;2023-03-20T09:09:53;101873.31;;;15.56;51.02
21547;BME280;41275;51.912;4.388;2023-03-20T09:15:14;101874.13;;;15.68;50.77
21547;BME280;41275;51.912;4.388;2023-03-20T09:20:35;101882.69;;;15.70;50.74
21547;BME280;41275;51.912;4.388;2023-03-20T09:25:56;101881.19;;;15.75;50.33
21547;BME280;41275;51.912;4.388;2023-03-20T09:31:18;101877.94;;;15.84;50.59
21547;BME280;41275;51.912;4.388;2023-03-20T09:36:39;101882.22;;;15.85;50.47
21547;BME280;41275;51.912;4.388;2023-03-20T09:48:04;101881.16;;;15.86;49.91
21547;BME280;41275;51.912;4.388;2023-03-20T09:53:33;101881.63;;;15.83;49.99
21547;BME280;41275;51.912;4.388;2023-03-20T09:58:58;101886.88;;;15.78;49.43
21547;BME280;41275;51.912;4.388;2023-03-20T10:04:23;101885.69;;;15.86;49.97
21547;BME280;41275;51.912;4.388;2023-03-20T10:09:46;101883.81;;;15.86;49.27
21547;BME280;41275;51.912;4.388;2023-03-20T10:15:38;101881.63;;;15.83;49.07
21547;BME280;41275;51.912;4.388;2023-03-20T10:21:17;101866.66;;;15.82;49.23
21547;BME280;41275;51.912;4.388;2023-03-20T10:26:43;101863.53;;;15.85;49.20
21547;BME280;41275;51.912;4.388;2023-03-20T10:32:37;101856.00;;;15.82;49.23
21547;BME280;41275;51.912;4.388;2023-03-20T10:38:10;101858.44;;;15.84;49.46
21547;BME280;41275;51.912;4.388;2023-03-20T10:43:34;101852.75;;;15.80;49.53
21547;BME280;41275;51.912;4.388;2023-03-20T10:49:13;101853.88;;;15.96;49.31
21547;BME280;41275;51.912;4.388;2023-03-20T10:54:43;101842.16;;;15.97;48.64
21547;BME280;41275;51.912;4.388;2023-03-20T11:00:06;101830.69;;;16.13;48.70
21547;BME280;41275;51.912;4.388;2023-03-20T11:05:33;101832.94;;;16.33;48.79
21547;BME280;41275;51.912;4.388;2023-03-20T11:11:00;101830.94;;;16.57;48.31
21547;BME280;41275;51.912;4.388;2023-03-20T11:16:24;101824.91;;;16.79;48.49
21547;BME280;41275;51.912;4.388;2023-03-20T11:21:54;101823.28;;;16.78;48.16
21547;BME280;41275;51.912;4.388;2023-03-20T11:27:18;101818.56;;;16.51;48.09
21547;BME280;41275;51.912;4.388;2023-03-20T11:32:46;101819.84;;;16.49;48.25
21547;BME280;41275;51.912;4.388;2023-03-20T11:38:28;101816.75;;;16.40;48.16
21547;BME280;41275;51.912;4.388;2023-03-20T11:43:51;101820.09;;;16.47;48.46
21547;BME280;41275;51.912;4.388;2023-03-20T11:49:20;101818.44;;;16.46;48.20
21547;BME280;41275;51.912;4.388;2023-03-20T11:54:47;101825.59;;;16.40;48.54
21547;BME280;41275;51.912;4.388;2023-03-20T12:05:36;101812.91;;;15.90;49.55
21547;BME280;41275;51.912;4.388;2023-03-20T12:11:16;101813.28;;;15.82;50.43
21547;BME280;41275;51.912;4.388;2023-03-20T12:16:40;101808.31;;;15.74;50.81
21547;BME280;41275;51.912;4.388;2023-03-20T12:22:11;101806.84;;;15.66;51.01
21547;BME280;41275;51.912;4.388;2023-03-20T12:27:36;101795.78;;;15.63;51.51
21547;BME280;41275;51.912;4.388;2023-03-20T12:33:11;101793.31;;;15.85;51.81
21547;BME280;41275;51.912;4.388;2023-03-20T12:38:35;101797.28;;;15.82;51.96
21547;BME280;41275;51.912;4.388;2023-03-20T12:49:59;101791.16;;;15.70;52.50
21547;BME280;41275;51.912;4.388;2023-03-20T12:55:51;101793.75;;;15.65;52.51
21547;BME280;41275;51.912;4.388;2023-03-20T13:01:44;101789.09;;;15.60;52.77
21547;BME280;41275;51.912;4.388;2023-03-20T13:24:34;101772.72;;;15.68;53.62
21547;BME280;41275;51.912;4.388;2023-03-20T13:30:18;101762.56;;;15.82;54.13
21547;BME280;41275;51.912;4.388;2023-03-20T13:35:49;101772.06;;;15.90;53.62
21547;BME280;41275;51.912;4.388;2023-03-20T13:41:12;101772.19;;;15.83;54.06
21547;BME280;41275;51.912;4.388;2023-03-20T13:46:38;101757.91;;;15.89;54.39
21547;BME280;41275;51.912;4.388;2023-03-20T13:52:06;101765.03;;;15.84;54.41
21547;BME280;41275;51.912;4.388;2023-03-20T14:08:37;101752.94;;;16.10;54.17
21547;BME280;41275;51.912;4.388;2023-03-20T14:19:35;101748.25;;;16.17;54.60
21547;BME280;41275;51.912;4.388;2023-03-20T14:25:06;101745.31;;;16.18;54.30
21547;BME280;41275;51.912;4.388;2023-03-20T14:47:41;101734.50;;;16.25;54.89
21547;BME280;41275;51.912;4.388;2023-03-20T14:59:05;101719.19;;;16.37;54.34
21547;BME280;41275;51.912;4.388;2023-03-20T15:04:37;101706.31;;;16.34;54.40
21547;BME280;41275;51.912;4.388;2023-03-20T15:10:00;101709.25;;;16.33;54.53
21547;BME280;41275;51.912;4.388;2023-03-20T15:15:26;101713.78;;;16.32;54.52
21547;BME280;41275;51.912;4.388;2023-03-20T15:20:47;101715.47;;;16.22;55.08
21547;BME280;41275;51.912;4.388;2023-03-20T15:26:09;101712.81;;;16.22;55.00
21547;BME280;41275;51.912;4.388;2023-03-20T15:31:36;101702.94;;;16.22;55.24
21547;BME280;41275;51.912;4.388;2023-03-20T15:37:01;101703.31;;;16.31;55.29
21547;BME280;41275;51.912;4.388;2023-03-20T15:42:24;101705.09;;;16.42;55.14
21547;BME280;41275;51.912;4.388;2023-03-20T15:47:45;101707.47;;;16.38;55.19
21547;BME280;41275;51.912;4.388;2023-03-20T15:53:07;101693.88;;;16.40;55.75
21547;BME280;41275;51.912;4.388;2023-03-20T15:58:32;101692.72;;;16.53;55.59
21547;BME280;41275;51.912;4.388;2023-03-20T16:03:56;101698.94;;;16.58;55.47
21547;BME280;41275;51.912;4.388;2023-03-20T16:09:19;101690.91;;;16.58;55.78
21547;BME280;41275;51.912;4.388;2023-03-20T16:14:40;101688.50;;;16.57;56.22
21547;BME280;41275;51.912;4.388;2023-03-20T16:20:01;101689.19;;;16.47;55.86
21547;BME280;41275;51.912;4.388;2023-03-20T16:25:23;101680.97;;;16.54;55.88
21547;BME280;41275;51.912;4.388;2023-03-20T16:30:44;101685.59;;;16.41;55.92
21547;BME280;41275;51.912;4.388;2023-03-20T16:36:07;101679.00;;;16.27;56.21
21547;BME280;41275;51.912;4.388;2023-03-20T16:52:31;101684.06;;;16.45;56.19
21547;BME280;41275;51.912;4.388;2023-03-20T16:58:02;101690.00;;;16.48;56.24
21547;BME280;41275;51.912;4.388;2023-03-20T17:03:29;101687.53;;;16.46;56.13
21547;BME280;41275;51.912;4.388;2023-03-20T17:09:09;101690.78;;;16.48;56.00
21547;BME280;41275;51.912;4.388;2023-03-20T17:14:35;101688.84;;;16.43;56.30
21547;BME280;41275;51.912;4.388;2023-03-20T17:19:56;101695.00;;;16.44;56.27
21547;BME280;41275;51.912;4.388;2023-03-20T17:25:18;101693.63;;;16.41;56.09
21547;BME280;41275;51.912;4.388;2023-03-20T17:30:39;101695.16;;;16.37;56.06
21547;BME280;41275;51.912;4.388;2023-03-20T17:36:01;101698.97;;;16.41;56.46
21547;BME280;41275;51.912;4.388;2023-03-20T17:41:23;101702.84;;;16.34;55.82
21547;BME280;41275;51.912;4.388;2023-03-20T17:46:44;101706.00;;;16.31;56.52
21547;BME280;41275;51.912;4.388;2023-03-20T17:52:11;101703.72;;;16.23;56.40
21547;BME280;41275;51.912;4.388;2023-03-20T17:57:36;101723.41;;;16.16;56.89
21547;BME280;41275;51.912;4.388;2023-03-20T18:02:57;101712.06;;;16.09;56.93
21547;BME280;41275;51.912;4.388;2023-03-20T18:08:20;101719.34;;;16.14;56.82
21547;BME280;41275;51.912;4.388;2023-03-20T18:13:41;101716.22;;;16.17;57.09
21547;BME280;41275;51.912;4.388;2023-03-20T18:19:03;101719.22;;;16.20;57.11
21547;BME280;41275;51.912;4.388;2023-03-20T18:24:24;101718.16;;;16.22;57.18
21547;BME280;41275;51.912;4.388;2023-03-20T18:29:46;101713.72;;;16.27;57.06
21547;BME280;41275;51.912;4.388;2023-03-20T18:35:07;101717.66;;;16.25;57.24
21547;BME280;41275;51.912;4.388;2023-03-20T18:40:34;101721.16;;;16.25;57.16
21547;BME280;41275;51.912;4.388;2023-03-20T18:45:55;101721.16;;;16.25;57.57
21547;BME280;41275;51.912;4.388;2023-03-20T18:51:17;101712.19;;;16.31;57.26
21547;BME280;41275;51.912;4.388;2023-03-20T18:56:39;101720.25;;;16.36;57.20
21547;BME280;41275;51.912;4.388;2023-03-20T19:02:01;101714.91;;;16.36;57.05
21547;BME280;41275;51.912;4.388;2023-03-20T19:07:22;101706.66;;;16.38;57.51
21547;BME280;41275;51.912;4.388;2023-03-20T19:12:43;101713.94;;;16.42;57.44
21547;BME280;41275;51.912;4.388;2023-03-20T19:18:08;101707.94;;;16.52;57.08
21547;BME280;41275;51.912;4.388;2023-03-20T19:23:31;101698.41;;;16.56;56.98
21547;BME280;41275;51.912;4.388;2023-03-20T19:28:54;101700.75;;;16.53;56.93
21547;BME280;41275;51.912;4.388;2023-03-20T19:34:16;101704.78;;;16.55;57.07
21547;BME280;41275;51.912;4.388;2023-03-20T19:39:37;101705.28;;;16.52;56.84
21547;BME280;41275;51.912;4.388;2023-03-20T19:44:58;101703.09;;;16.49;57.18
21547;BME280;41275;51.912;4.388;2023-03-20T19:50:31;101683.41;;;16.38;57.58
21547;BME280;41275;51.912;4.388;2023-03-20T19:55:56;101691.44;;;16.38;57.26
21547;BME280;41275;51.912;4.388;2023-03-20T20:01:20;101692.06;;;16.45;57.22
21547;BME280;41275;51.912;4.388;2023-03-20T20:06:42;101681.22;;;16.52;57.07
21547;BME280;41275;51.912;4.388;2023-03-20T20:12:03;101678.97;;;16.44;56.88
21547;BME280;41275;51.912;4.388;2023-03-20T20:17:24;101686.56;;;16.52;57.00
21547;BME280;41275;51.912;4.388;2023-03-20T20:22:47;101682.03;;;16.53;56.91
21547;BME280;41275;51.912;4.388;2023-03-20T20:28:10;101676.22;;;16.56;56.79
21547;BME280;41275;51.912;4.388;2023-03-20T20:33:32;101674.19;;;16.46;56.76
21547;BME280;41275;51.912;4.388;2023-03-20T20:38:55;101681.59;;;16.39;56.84
21547;BME280;41275;51.912;4.388;2023-03-20T20:44:17;101669.03;;;16.39;57.26
21547;BME280;41275;51.912;4.388;2023-03-20T20:49:38;101672.25;;;16.41;57.19
21547;BME280;41275;51.912;4.388;2023-03-20T20:54:59;101669.41;;;16.48;56.92
21547;BME280;41275;51.912;4.388;2023-03-20T21:00:22;101669.97;;;16.50;56.83
21547;BME280;41275;51.912;4.388;2023-03-20T21:05:45;101665.03;;;16.42;56.96
21547;BME280;41275;51.912;4.388;2023-03-20T21:11:06;101663.44;;;16.41;56.67
21547;BME280;41275;51.912;4.388;2023-03-20T21:16:28;101667.38;;;16.38;56.93
21547;BME280;41275;51.912;4.388;2023-03-20T21:21:50;101665.78;;;16.37;57.07
21547;BME280;41275;51.912;4.388;2023-03-20T21:27:13;101661.31;;;16.26;56.91
21547;BME280;41275;51.912;4.388;2023-03-20T21:32:35;101665.31;;;16.24;56.73
21547;BME280;41275;51.912;4.388;2023-03-20T21:37:56;101667.41;;;16.22;56.73
21547;BME280;41275;51.912;4.388;2023-03-20T21:43:17;101663.34;;;16.19;56.51
21547;BME280;41275;51.912;4.388;2023-03-20T21:48:39;101655.91;;;16.21;56.44
21547;BME280;41275;51.912;4.388;2023-03-20T21:54:00;101661.00;;;16.23;56.68
21547;BME280;41275;51.912;4.388;2023-03-20T21:59:22;101657.19;;;16.18;57.02
21547;BME280;41275;51.912;4.388;2023-03-20T22:04:43;101652.91;;;16.17;56.76
21547;BME280;41275;51.912;4.388;2023-03-20T22:10:05;101647.25;;;16.14;57.08
21547;BME280;41275;51.912;4.388;2023-03-20T22:15:26;101645.00;;;16.06;57.21
21547;BME280;41275;51.912;4.388;2023-03-20T22:20:54;101651.53;;;16.15;57.47
21547;BME280;41275;51.912;4.388;2023-03-20T22:26:16;101658.00;;;16.19;56.60
21547;BME280;41275;51.912;4.388;2023-03-20T22:31:37;101649.78;;;16.20;56.53
21547;BME280;41275;51.912;4.388;2023-03-20T22:36:58;101648.97;;;16.20;56.53
21547;BME280;41275;51.912;4.388;2023-03-20T22:42:19;101635.13;;;16.23;56.85
21547;BME280;41275;51.912;4.388;2023-03-20T22:47:41;101632.84;;;16.32;57.02
21547;BME280;41275;51.912;4.388;2023-03-20T22:53:02;101618.81;;;16.41;56.72
21547;BME280;41275;51.912;4.388;2023-03-20T22:58:24;101624.47;;;16.45;57.12
21547;BME280;41275;51.912;4.388;2023-03-20T23:03:45;101616.72;;;16.43;57.13
21547;BME280;41275;51.912;4.388;2023-03-20T23:09:06;101627.22;;;16.50;57.03
21547;BME280;41275;51.912;4.388;2023-03-20T23:14:29;101609.09;;;16.52;56.50
21547;BME280;41275;51.912;4.388;2023-03-20T23:19:50;101618.06;;;16.63;56.52
21547;BME280;41275;51.912;4.388;2023-03-20T23:25:11;101622.88;;;16.66;56.14
21547;BME280;41275;51.912;4.388;2023-03-20T23:30:32;101614.88;;;16.66;56.45
21547;BME280;41275;51.912;4.388;2023-03-20T23:35:55;101602.63;;;16.70;56.26
21547;BME280;41275;51.912;4.388;2023-03-20T23:41:17;101599.16;;;16.69;55.90
21547;BME280;41275;51.912;4.388;2023-03-20T23:46:38;101598.59;;;16.67;55.51
21547;BME280;41275;51.912;4.388;2023-03-20T23:51:59;101603.94;;;16.67;55.39
21547;BME280;41275;51.912;4.388;2023-03-20T23:57:20;101590.00;;;16.65;55.39
